^^
Saratoga-Weather Station Historical Data
Daily Summary for July 28, 2020 Units:  English    Metric   Both
Daily Weekly Monthly Yearly Custom
  High: Low: Average:
Temperature: 63 °F 51.8 °F 56.5 °F
Dew Point: 55.4 °F 46.8 °F 51.1 °F
Humidity: 95% 64% 83%
Wind Speed: 11mph 0mph 1.6mph
Wind Gust: 16mph - -
Wind- - SW
Pressure: 29.7 in 29.6 in -
Precipitation: 0.16 in    
Historical Graphs
 
 
Tabular Data for July 28, 2020
Time Temperature Dew Point Pressure Wind Wind Speed Wind Gust Humidity Rainfall Rate (Hourly) solar
00:04 54.1 °F 47.1 °F 29.7 in Calm     77% 0 in 0 W/m2
00:09 54 °F 46.9 °F 29.7 in Calm     77% 0 in 0 W/m2
00:14 54 °F 47.3 °F 29.7 in Calm     78% 0 in 0 W/m2
00:19 53.8 °F 47.1 °F 29.7 in Calm     78% 0 in 0 W/m2
00:24 53.8 °F 47.5 °F 29.7 in Calm     79% 0 in 0 W/m2
00:30 53.4 °F 47.1 °F 29.7 in Calm     79% 0 in 0 W/m2
00:35 53.4 °F 47.5 °F 29.7 in Calm     80% 0 in 0 W/m2
00:40 53.2 °F 47.3 °F 29.7 in Calm     80% 0 in 0 W/m2
00:45 53.2 °F 47.3 °F 29.7 in Calm     80% 0 in 0 W/m2
00:50 53.1 °F 47.1 °F 29.7 in Calm     80% 0 in 0 W/m2
00:55 53.1 °F 47.1 °F 29.7 in Calm     80% 0 in 0 W/m2
01:00 52.9 °F 47.3 °F 29.7 in Calm     81% 0 in 0 W/m2
01:05 52.9 °F 47.3 °F 29.7 in Calm     81% 0 in 0 W/m2
01:10 52.7 °F 47.1 °F 29.7 in Calm     81% 0 in 0 W/m2
01:15 52.5 °F 46.9 °F 29.7 in Calm     81% 0 in 0 W/m2
01:20 52.5 °F 46.9 °F 29.7 in Calm     81% 0 in 0 W/m2
01:25 52.5 °F 47.1 °F 29.7 in Calm     82% 0 in 0 W/m2
01:30 52.3 °F 46.9 °F 29.7 in Calm     82% 0 in 0 W/m2
01:35 52.2 °F 46.8 °F 29.7 in Calm     82% 0 in 0 W/m2
01:40 52.2 °F 46.8 °F 29.7 in Calm     82% 0 in 0 W/m2
01:45 52.2 °F 46.8 °F 29.7 in Calm   1 mph 82% 0 in 0 W/m2
01:50 52 °F 46.9 °F 29.7 in Calm     83% 0 in 0 W/m2
01:55 52 °F 46.9 °F 29.7 in Calm     83% 0 in 0 W/m2
02:00 51.8 °F 46.8 °F 29.7 in Calm     83% 0 in 0 W/m2
02:05 51.8 °F 46.8 °F 29.7 in Calm   1 mph 83% 0 in 0 W/m2
02:10 51.8 °F 46.8 °F 29.7 in Calm     83% 0 in 0 W/m2
02:15 51.8 °F 46.8 °F 29.7 in Calm   1 mph 83% 0 in 0 W/m2
02:20 52 °F 47.3 °F 29.7 in Calm     84% 0 in 0 W/m2
02:25 52 °F 46.9 °F 29.7 in Calm   1 mph 83% 0 in 0 W/m2
02:30 52.2 °F 47.1 °F 29.7 in Calm   1 mph 83% 0 in 0 W/m2
02:35 52.2 °F 47.1 °F 29.7 in Calm   1 mph 83% 0 in 0 W/m2
02:40 52.2 °F 47.1 °F 29.7 in SSW 2 mph 2 mph 83% 0 in 0 W/m2
02:45 52.3 °F 47.3 °F 29.7 in Calm     83% 0 in 0 W/m2
02:50 52.3 °F 47.3 °F 29.7 in Calm   1 mph 83% 0 in 0 W/m2
02:55 52.5 °F 47.5 °F 29.7 in Calm   1 mph 83% 0 in 0 W/m2
03:00 52.7 °F 47.7 °F 29.7 in Calm     83% 0 in 0 W/m2
03:05 52.9 °F 47.8 °F 29.7 in Calm     83% 0 in 0 W/m2
03:10 53.1 °F 48 °F 29.7 in SE 0.9 mph 3 mph 83% 0 in 0 W/m2
03:15 53.2 °F 47.8 °F 29.7 in SE 0.9 mph 1 mph 82% 0 in 0 W/m2
03:20 53.6 °F 48.2 °F 29.7 in Calm   1 mph 82% 0 in 0 W/m2
03:25 53.8 °F 48.4 °F 29.7 in Calm     82% 0 in 0 W/m2
03:30 53.8 °F 48.4 °F 29.7 in Calm     82% 0 in 0 W/m2
03:35 54 °F 48.6 °F 29.7 in Calm     82% 0 in 0 W/m2
03:40 54 °F 48.6 °F 29.7 in Calm     82% 0 in 0 W/m2
03:45 54.1 °F 48.7 °F 29.7 in Calm     82% 0 in 0 W/m2
03:50 54.3 °F 48.9 °F 29.7 in Calm     82% 0 in 0 W/m2
03:55 54.3 °F 48.6 °F 29.7 in Calm     81% 0 in 0 W/m2
04:00 54.3 °F 48.9 °F 29.7 in Calm     82% 0 in 0 W/m2
04:06 54.3 °F 48.9 °F 29.7 in Calm     82% 0 in 0 W/m2
04:11 54.3 °F 48.9 °F 29.7 in Calm     82% 0 in 0 W/m2
04:16 54.3 °F 49.3 °F 29.7 in Calm     83% 0 in 0 W/m2
04:21 54.3 °F 49.3 °F 29.7 in Calm     83% 0 in 0 W/m2
04:26 54.3 °F 49.3 °F 29.7 in Calm     83% 0 in 0 W/m2
04:31 54.3 °F 49.3 °F 29.7 in Calm     83% 0 in 0 W/m2
04:36 54.3 °F 49.3 °F 29.7 in Calm     83% 0 in 0 W/m2
04:41 54.5 °F 49.5 °F 29.7 in Calm     83% 0 in 0 W/m2
04:46 54.7 °F 49.6 °F 29.7 in Calm     83% 0 in 0 W/m2
04:51 54.7 °F 49.6 °F 29.7 in Calm     83% 0 in 0 W/m2
04:56 54.9 °F 49.8 °F 29.7 in Calm   1 mph 83% 0 in 0 W/m2
05:01 54.9 °F 49.8 °F 29.7 in Calm     83% 0 in 0 W/m2
05:06 54.9 °F 49.5 °F 29.7 in Calm     82% 0 in 0 W/m2
05:11 54.9 °F 49.5 °F 29.7 in Calm     82% 0 in 0 W/m2
05:16 54.9 °F 49.5 °F 29.7 in Calm   1 mph 82% 0 in 0 W/m2
05:21 54.9 °F 49.5 °F 29.7 in Calm     82% 0 in 0 W/m2
05:26 54.9 °F 49.5 °F 29.7 in Calm     82% 0 in 0 W/m2
05:31 54.7 °F 49.6 °F 29.7 in Calm     83% 0 in 0 W/m2
05:37 54.9 °F 49.8 °F 29.7 in Calm     83% 0 in 0 W/m2
05:42 54.9 °F 50.2 °F 29.7 in Calm     84% 0 in 0 W/m2
05:47 54.9 °F 50.4 °F 29.6 in ESE 0.9 mph 1 mph 85% 0 in 0 W/m2
05:52 54.9 °F 50.4 °F 29.6 in Calm     85% 0 in 0 W/m2
05:57 54.9 °F 50.7 °F 29.6 in Calm   1 mph 86% 0 in 0 W/m2
06:02 54.9 °F 51.1 °F 29.6 in Calm     87% 0 in 0 W/m2
06:07 54.9 °F 51.1 °F 29.6 in Calm     87% 0 in 0 W/m2
06:12 54.9 °F 51.1 °F 29.6 in Calm     87% 0 in 0 W/m2
06:17 55 °F 51.6 °F 29.6 in Calm     88% 0 in 0 W/m2
06:22 55 °F 51.6 °F 29.6 in Calm     88% 0 in 0 W/m2
06:27 55 °F 51.6 °F 29.6 in Calm     88% 0 in 0 W/m2
06:32 55 °F 51.6 °F 29.6 in Calm     88% 0 in 0 W/m2
06:38 55 °F 51.6 °F 29.6 in Calm   2 mph 88% 0 in 5 W/m2
06:43 55.2 °F 52 °F 29.6 in NE 0.9 mph 3 mph 89% 0 in 7 W/m2
06:48 55.2 °F 52 °F 29.6 in Calm   2 mph 89% 0 in 9 W/m2
06:53 55.6 °F 52.3 °F 29.6 in East 0.9 mph 3 mph 89% 0 in 7 W/m2
06:58 55.6 °F 52.7 °F 29.6 in East 0.9 mph 2 mph 90% 0.01 in 7 W/m2
07:03 55.6 °F 52.7 °F 29.6 in ESE 0.9 mph 2 mph 90% 0.02 in 9 W/m2
07:08 55.4 °F 52.9 °F 29.6 in ESE 0.9 mph 1 mph 91% 0.02 in 11 W/m2
07:13 55.2 °F 52.7 °F 29.6 in ESE 0.9 mph 2 mph 91% 0.03 in 12 W/m2
07:18 55.2 °F 52.7 °F 29.6 in Calm   1 mph 91% 0.04 in 9 W/m2
07:23 55 °F 52.7 °F 29.6 in ESE 0.9 mph 1 mph 92% 0.05 in 11 W/m2
07:28 55 °F 52.7 °F 29.6 in Calm     92% 0.05 in 14 W/m2
07:33 55 °F 52.7 °F 29.6 in Calm   1 mph 92% 0.05 in 18 W/m2
07:38 54.9 °F 52.9 °F 29.6 in East 0.9 mph 2 mph 93% 0.06 in 25 W/m2
07:43 54.9 °F 52.9 °F 29.6 in Calm   1 mph 93% 0.06 in 23 W/m2
07:48 54.9 °F 52.9 °F 29.6 in Calm   2 mph 93% 0.07 in 21 W/m2
07:53 54.9 °F 52.9 °F 29.6 in Calm   1 mph 93% 0.08 in 19 W/m2
07:58 54.9 °F 53.2 °F 29.6 in Calm   1 mph 94% 0.07 in 16 W/m2
08:03 54.9 °F 53.2 °F 29.6 in Calm   1 mph 94% 0.07 in 23 W/m2
08:08 54.9 °F 53.2 °F 29.6 in ENE 0.9 mph 2 mph 94% 0.06 in 25 W/m2
08:13 54.9 °F 53.2 °F 29.6 in Calm   1 mph 94% 0.06 in 21 W/m2
08:18 54.9 °F 53.2 °F 29.6 in ENE 0.9 mph 1 mph 94% 0.06 in 25 W/m2
08:23 55 °F 53.4 °F 29.6 in ENE 0.9 mph 1 mph 94% 0.05 in 30 W/m2
08:28 55 °F 53.4 °F 29.6 in Calm   1 mph 94% 0.05 in 30 W/m2
08:33 55 °F 53.4 °F 29.6 in Calm   2 mph 94% 0.06 in 32 W/m2
08:38 55 °F 53.4 °F 29.6 in Calm     94% 0.05 in 30 W/m2
08:43 55 °F 53.6 °F 29.6 in ENE 0.9 mph 1 mph 95% 0.04 in 25 W/m2
08:48 55 °F 53.6 °F 29.6 in Calm     95% 0.03 in 30 W/m2
08:53 55 °F 53.6 °F 29.6 in ENE 0.9 mph 2 mph 95% 0.02 in 69 W/m2
08:58 55.2 °F 53.8 °F 29.6 in ENE 0.9 mph 2 mph 95% 0.02 in 76 W/m2
09:03 55.4 °F 54 °F 29.6 in Calm   2 mph 95% 0.02 in 81 W/m2
09:08 55.6 °F 54.1 °F 29.6 in Calm     95% 0.02 in 93 W/m2
09:13 55.8 °F 54.3 °F 29.6 in Calm   2 mph 95% 0.01 in 120 W/m2
09:18 55.9 °F 54.5 °F 29.6 in Calm   1 mph 95% 0.01 in 176 W/m2
09:23 56.1 °F 54.7 °F 29.6 in Calm   2 mph 95% 0.01 in 204 W/m2
09:28 56.5 °F 55 °F 29.6 in WNW 2 mph 3 mph 95% 0.02 in 209 W/m2
09:33 56.7 °F 55.2 °F 29.6 in NE 4.9 mph 8 mph 95% 0.01 in 221 W/m2
09:38 56.7 °F 55.2 °F 29.6 in West 0.9 mph 2 mph 95% 0.01 in 239 W/m2
09:43 56.8 °F 55.4 °F 29.6 in NNW 2 mph 8 mph 95% 0.01 in 209 W/m2
09:48 56.8 °F 55.4 °F 29.6 in North 4.9 mph 5 mph 95% 0.01 in 179 W/m2
09:53 57 °F 55.2 °F 29.6 in WNW 2.9 mph 6 mph 94% 0.01 in 139 W/m2
09:58 56.8 °F 55.2 °F 29.6 in WNW 2 mph 4 mph 94% 0.02 in 148 W/m2
10:03 56.8 °F 54.9 °F 29.6 in NW 4.9 mph 5 mph 93% 0.02 in 181 W/m2
10:08 56.7 °F 54.7 °F 29.6 in WNW 11 mph 11 mph 93% 0.02 in 183 W/m2
10:13 56.5 °F 54.5 °F 29.6 in WSW 6 mph 9 mph 93% 0.02 in 179 W/m2
10:18 56.5 °F 54.5 °F 29.6 in SW 11 mph 11 mph 93% 0.02 in 148 W/m2
10:23 56.5 °F 54.5 °F 29.6 in West 2.9 mph 9 mph 93% 0.03 in 97 W/m2
10:28 56.3 °F 54.3 °F 29.6 in WNW 2 mph 7 mph 93% 0.02 in 141 W/m2
10:33 56.3 °F 54.3 °F 29.6 in SW 4 mph 11 mph 93% 0.03 in 90 W/m2
10:38 56.1 °F 54.1 °F 29.6 in NW 2 mph 6 mph 93% 0.03 in 79 W/m2
10:43 56.1 °F 54.1 °F 29.6 in NW 4 mph 9 mph 93% 0.04 in 72 W/m2
10:48 56.1 °F 54.1 °F 29.6 in SW 2.9 mph 9 mph 93% 0.04 in 91 W/m2
10:54 55.9 °F 54 °F 29.6 in WNW 4 mph 7 mph 93% 0.04 in 162 W/m2
10:59 56.1 °F 54.1 °F 29.7 in WNW 4 mph 10 mph 93% 0.03 in 84 W/m2
11:04 55.9 °F 54 °F 29.7 in WNW 4.9 mph 8 mph 93% 0.03 in 213 W/m2
11:09 55.9 °F 53.6 °F 29.7 in WNW 8.1 mph 16 mph 92% 0.02 in 258 W/m2
11:14 55.9 °F 53.6 °F 29.7 in West 6 mph 10 mph 92% 0.02 in 211 W/m2
11:19 55.9 °F 53.4 °F 29.7 in West 6 mph 16 mph 91% 0.02 in 127 W/m2
11:24 55.9 °F 53.4 °F 29.7 in WNW 4.9 mph 9 mph 91% 0.02 in 162 W/m2
11:29 55.9 °F 53.6 °F 29.7 in NNW 4 mph 13 mph 92% 0.02 in 251 W/m2
11:34 55.9 °F 53.6 °F 29.7 in WNW 2.9 mph 6 mph 92% 0.02 in 274 W/m2
11:39 55.9 °F 53.4 °F 29.7 in NW 8.1 mph 8 mph 91% 0.02 in 185 W/m2
11:44 55.9 °F 53.4 °F 29.7 in WSW 2 mph 7 mph 91% 0.01 in 118 W/m2
11:49 55.8 °F 53.2 °F 29.7 in WNW 2.9 mph 4 mph 91% 0.01 in 77 W/m2
11:54 55.8 °F 53.2 °F 29.7 in WSW 8.9 mph 10 mph 91% 0.01 in 90 W/m2
11:59 55.6 °F 53.1 °F 29.7 in NE 2.9 mph 11 mph 91% 0.01 in 109 W/m2
12:04 55.2 °F 52.7 °F 29.7 in NW 6.9 mph 14 mph 91% 0.01 in 104 W/m2
12:09 54.9 °F 52.3 °F 29.7 in WNW 11 mph 11 mph 91% 0.01 in 125 W/m2
12:14 54.7 °F 52.2 °F 29.7 in West 2 mph 13 mph 91% 0.01 in 262 W/m2
12:19 54.7 °F 52.2 °F 29.7 in North 2.9 mph 11 mph 91% 0.01 in 411 W/m2
12:24 55 °F 52.7 °F 29.7 in NW 4 mph 12 mph 92% 0.01 in 573 W/m2
12:29 55.6 °F 53.2 °F 29.7 in North 8.1 mph 8 mph 92% 0.01 in 622 W/m2
12:34 56.3 °F 54 °F 29.7 in West 4 mph 11 mph 92% 0 in 596 W/m2
12:39 57 °F 54.5 °F 29.7 in West 4 mph 8 mph 91% 0 in 506 W/m2
12:44 57.4 °F 54.1 °F 29.7 in WNW 2 mph 7 mph 89% 0 in 359 W/m2
12:49 57 °F 53.2 °F 29.7 in SSW 4 mph 7 mph 87% 0 in 199 W/m2
12:55 57 °F 53.2 °F 29.7 in WSW 0.9 mph 4 mph 87% 0 in 132 W/m2
13:00 57 °F 53.2 °F 29.7 in ESE 0.9 mph 2 mph 87% 0 in 81 W/m2
13:05 56.8 °F 53.1 °F 29.7 in WSW 2.9 mph 3 mph 87% 0 in 51 W/m2
13:10 56.5 °F 52.7 °F 29.7 in NW 2 mph 4 mph 87% 0 in 40 W/m2
13:15 56.1 °F 52.3 °F 29.7 in WSW 4.9 mph 13 mph 87% 0 in 137 W/m2
13:20 55.9 °F 52.5 °F 29.7 in NW 0.9 mph 2 mph 88% 0 in 265 W/m2
13:25 56.1 °F 52.7 °F 29.7 in West 2 mph 8 mph 88% 0 in 557 W/m2
13:30 56.8 °F 53.1 °F 29.7 in North 8.9 mph 9 mph 87% 0 in 693 W/m2
13:35 57.7 °F 53.6 °F 29.7 in West 2 mph 11 mph 86% 0 in 1030 W/m2
13:40 58.5 °F 54.3 °F 29.7 in SW 0.9 mph 12 mph 86% 0 in 269 W/m2
13:45 58.6 °F 53.4 °F 29.7 in SE 0.9 mph 6 mph 83% 0 in 425 W/m2
13:50 58.8 °F 53.1 °F 29.7 in West 2.9 mph 9 mph 81% 0 in 374 W/m2
13:55 59 °F 53.2 °F 29.7 in NNW 2.9 mph 6 mph 81% 0 in 520 W/m2
14:00 59.4 °F 53.2 °F 29.7 in WNW 2.9 mph 6 mph 80% 0 in 348 W/m2
14:05 59.2 °F 53.1 °F 29.7 in NW 0.9 mph 7 mph 80% 0 in 183 W/m2
14:10 59.2 °F 52.3 °F 29.7 in WNW 0.9 mph 9 mph 78% 0 in 72 W/m2
14:15 58.6 °F 51.8 °F 29.7 in WNW 0.9 mph 4 mph 78% 0 in 104 W/m2
14:21 58.5 °F 52 °F 29.7 in NNW 4.9 mph 5 mph 79% 0 in 229 W/m2
14:26 58.5 °F 52 °F 29.7 in WNW 2.9 mph 4 mph 79% 0 in 503 W/m2
14:31 58.8 °F 52.3 °F 29.7 in NNW 0.9 mph 6 mph 79% 0 in 415 W/m2
14:36 59.2 °F 52.3 °F 29.7 in NW 0.9 mph 4 mph 78% 0 in 332 W/m2
14:41 59.4 °F 52.9 °F 29.7 in WNW 6.9 mph 9 mph 79% 0 in 274 W/m2
14:46 59.4 °F 51.8 °F 29.7 in WNW 6 mph 8 mph 76% 0 in 204 W/m2
14:51 59.4 °F 52.2 °F 29.7 in SE 0.9 mph 2 mph 77% 0 in 367 W/m2
14:56 59.7 °F 52.5 °F 29.7 in East 2 mph 4 mph 77% 0 in 404 W/m2
15:01 60.1 °F 52.5 °F 29.7 in NW 4 mph 9 mph 76% 0 in 364 W/m2
15:06 60.3 °F 52.7 °F 29.7 in WNW 2.9 mph 8 mph 76% 0 in 325 W/m2
15:11 60.3 °F 52.7 °F 29.7 in NW 2 mph 11 mph 76% 0 in 332 W/m2
15:16 60.4 °F 52.2 °F 29.7 in ENE 4.9 mph 5 mph 74% 0 in 881 W/m2
15:21 61 °F 51.4 °F 29.7 in WNW 8.1 mph 11 mph 71% 0 in 800 W/m2
15:26 61 °F 51.1 °F 29.7 in West 6 mph 13 mph 70% 0 in 380 W/m2
15:31 61.2 °F 51.6 °F 29.7 in SE 0.9 mph 8 mph 71% 0 in 898 W/m2
15:36 61.7 °F 52.5 °F 29.7 in NNW 10 mph 10 mph 72% 0 in 420 W/m2
15:41 62.1 °F 52.2 °F 29.7 in SW 2.9 mph 4 mph 70% 0 in 227 W/m2
15:46 62.1 °F 52.5 °F 29.7 in West 4 mph 4 mph 71% 0 in 244 W/m2
15:51 61.9 °F 52.3 °F 29.7 in NNW 4 mph 5 mph 71% 0 in 230 W/m2
15:56 61.5 °F 52 °F 29.7 in NW 8.9 mph 10 mph 71% 0 in 276 W/m2
16:01 61.5 °F 52.3 °F 29.7 in NE 0.9 mph 11 mph 72% 0 in 318 W/m2
16:06 61.7 °F 52.5 °F 29.7 in WSW 0.9 mph 9 mph 72% 0 in 318 W/m2
16:11 61.5 °F 52 °F 29.7 in NW 2.9 mph 8 mph 71% 0 in 294 W/m2
16:16 61.7 °F 52.2 °F 29.7 in WNW 0.9 mph 4 mph 71% 0 in 239 W/m2
16:21 61.9 °F 52.3 °F 29.7 in WNW 2 mph 3 mph 71% 0 in 345 W/m2
16:26 62.1 °F 51.8 °F 29.7 in WSW 2 mph 6 mph 69% 0 in 443 W/m2
16:31 62.4 °F 51.3 °F 29.7 in NW 2 mph 9 mph 67% 0 in 432 W/m2
16:36 62.8 °F 51.6 °F 29.7 in West 8.9 mph 9 mph 67% 0 in 262 W/m2
16:41 62.4 °F 51.3 °F 29.7 in WNW 4 mph 11 mph 67% 0 in 378 W/m2
16:46 62.4 °F 51.8 °F 29.7 in East 2 mph 6 mph 68% 0 in 308 W/m2
16:51 62.4 °F 51.8 °F 29.7 in West 2 mph 5 mph 68% 0 in 292 W/m2
16:56 62.2 °F 51.6 °F 29.7 in Calm   4 mph 68% 0 in 294 W/m2
17:02 62.6 °F 52.3 °F 29.7 in WNW 2 mph 3 mph 69% 0 in 436 W/m2
17:07 62.8 °F 52 °F 29.7 in NW 2.9 mph 4 mph 68% 0 in 190 W/m2
17:12 63 °F 51.8 °F 29.7 in West 6 mph 8 mph 67% 0 in 204 W/m2
17:17 62.6 °F 51.4 °F 29.7 in NW 6 mph 8 mph 67% 0 in 279 W/m2
17:22 62.6 °F 51.4 °F 29.7 in NW 2.9 mph 6 mph 67% 0 in 250 W/m2
17:27 62.4 °F 50.9 °F 29.7 in NW 2.9 mph 6 mph 66% 0 in 378 W/m2
17:32 62.8 °F 50.9 °F 29.7 in NW 4 mph 6 mph 65% 0 in 190 W/m2
17:37 63 °F 51.4 °F 29.7 in WSW 2 mph 6 mph 66% 0 in 209 W/m2
17:42 63 °F 51.4 °F 29.7 in NNW 2 mph 6 mph 66% 0 in 376 W/m2
17:47 62.8 °F 51.3 °F 29.7 in East 8.1 mph 8 mph 66% 0 in 160 W/m2
17:52 62.4 °F 50 °F 29.7 in WNW 2 mph 6 mph 64% 0 in 288 W/m2
17:57 62.8 °F 50.9 °F 29.7 in WSW 2.9 mph 4 mph 65% 0 in 343 W/m2
18:02 63 °F 50.5 °F 29.7 in NNW 0.9 mph 4 mph 64% 0 in 345 W/m2
18:07 63 °F 50.5 °F 29.7 in WSW 2.9 mph 9 mph 64% 0 in 84 W/m2
18:12 62.4 °F 50.5 °F 29.7 in West 2 mph 7 mph 65% 0 in 116 W/m2
18:17 62.1 °F 50.9 °F 29.7 in ENE 0.9 mph 9 mph 67% 0 in 158 W/m2
18:22 62.1 °F 50.9 °F 29.7 in WNW 4 mph 4 mph 67% 0 in 330 W/m2
18:27 62.4 °F 50.9 °F 29.7 in South 2 mph 7 mph 66% 0 in 149 W/m2
18:32 62.4 °F 51.3 °F 29.7 in Calm   4 mph 67% 0 in 174 W/m2
18:38 62.4 °F 51.8 °F 29.7 in SW 0.9 mph 7 mph 68% 0 in 295 W/m2
18:43 62.6 °F 51.1 °F 29.7 in West 0.9 mph 6 mph 66% 0 in 258 W/m2
18:48 62.8 °F 51.3 °F 29.7 in West 2 mph 8 mph 66% 0 in 169 W/m2
18:53 62.4 °F 51.3 °F 29.7 in NE 2 mph 3 mph 67% 0 in 132 W/m2
18:58 62.4 °F 51.3 °F 29.7 in NNE 0.9 mph 4 mph 67% 0 in 123 W/m2
19:03 62.1 °F 51.4 °F 29.7 in Calm   1 mph 68% 0 in 116 W/m2
19:08 62.1 °F 51.4 °F 29.7 in South 0.9 mph 4 mph 68% 0 in 91 W/m2
19:13 61.9 °F 51.6 °F 29.7 in Calm   1 mph 69% 0 in 79 W/m2
19:18 61.7 °F 51.4 °F 29.7 in ENE 2.9 mph 3 mph 69% 0 in 83 W/m2
19:23 61.5 °F 51.6 °F 29.7 in Calm   2 mph 70% 0 in 65 W/m2
19:28 61.3 °F 52.2 °F 29.7 in East 2 mph 3 mph 72% 0 in 104 W/m2
19:33 61.2 °F 52 °F 29.7 in Calm   1 mph 72% 0 in 86 W/m2
19:38 61.2 °F 52.5 °F 29.7 in Calm     73% 0 in 79 W/m2
19:43 60.8 °F 51.3 °F 29.7 in Calm   3 mph 71% 0 in 79 W/m2
19:48 60.6 °F 51.1 °F 29.7 in Calm   1 mph 71% 0 in 81 W/m2
19:53 60.6 °F 51.1 °F 29.7 in Calm   4 mph 71% 0 in 65 W/m2
19:58 60.6 °F 51.6 °F 29.7 in Calm   1 mph 72% 0 in 44 W/m2
20:03 60.4 °F 51.8 °F 29.7 in Calm   1 mph 73% 0 in 33 W/m2
20:08 60.3 °F 52 °F 29.7 in Calm   1 mph 74% 0 in 28 W/m2
20:13 59.7 °F 52.2 °F 29.7 in East 0.9 mph 2 mph 76% 0 in 26 W/m2
20:18 59.4 °F 51.1 °F 29.7 in Calm   1 mph 74% 0 in 23 W/m2
20:23 59.2 °F 52 °F 29.7 in SE 0.9 mph 2 mph 77% 0 in 19 W/m2
20:28 58.6 °F 51.8 °F 29.7 in SE 0.9 mph 1 mph 78% 0 in 14 W/m2
20:33 58.3 °F 51.8 °F 29.7 in SE 0.9 mph 2 mph 79% 0 in 11 W/m2
20:38 57.6 °F 51.4 °F 29.7 in SE 0.9 mph 1 mph 80% 0 in 9 W/m2
20:44 57 °F 51.3 °F 29.7 in Calm   2 mph 81% 0 in 5 W/m2
20:49 56.7 °F 51.3 °F 29.7 in Calm   2 mph 82% 0 in 5 W/m2
20:54 56.1 °F 50.7 °F 29.7 in Calm     82% 0 in 0 W/m2
20:59 55.9 °F 50.9 °F 29.7 in Calm     83% 0 in 0 W/m2
21:04 55.6 °F 50.9 °F 29.7 in Calm     84% 0 in 0 W/m2
21:09 55.2 °F 50.5 °F 29.7 in Calm     84% 0 in 0 W/m2
21:14 54.9 °F 50.4 °F 29.7 in Calm     85% 0 in 0 W/m2
21:19 54.7 °F 50.5 °F 29.7 in Calm     86% 0 in 0 W/m2
21:24 54.1 °F 50 °F 29.7 in Calm     86% 0 in 0 W/m2
21:29 54 °F 49.8 °F 29.7 in Calm     86% 0 in 0 W/m2
21:34 53.8 °F 50 °F 29.7 in Calm     87% 0 in 0 W/m2
21:39 53.4 °F 49.6 °F 29.7 in Calm     87% 0 in 0 W/m2
21:44 53.2 °F 49.5 °F 29.7 in Calm     87% 0 in 0 W/m2
21:49 53.1 °F 49.6 °F 29.7 in Calm     88% 0 in 0 W/m2
21:54 52.9 °F 49.5 °F 29.7 in Calm     88% 0 in 0 W/m2
21:59 52.9 °F 49.6 °F 29.7 in Calm     89% 0 in 0 W/m2
22:04 52.5 °F 49.5 °F 29.7 in Calm     89% 0 in 0 W/m2
22:09 52.5 °F 49.5 °F 29.7 in Calm     89% 0 in 0 W/m2
22:14 52.5 °F 49.5 °F 29.7 in Calm     89% 0 in 0 W/m2
22:19 52.3 °F 49.3 °F 29.7 in Calm     89% 0 in 0 W/m2
22:24 52.3 °F 49.5 °F 29.7 in Calm     90% 0 in 0 W/m2
22:29 52.3 °F 49.5 °F 29.7 in Calm     90% 0 in 0 W/m2
22:34 52.2 °F 49.3 °F 29.7 in Calm     90% 0 in 0 W/m2
22:39 52 °F 49.1 °F 29.7 in Calm     90% 0 in 0 W/m2
22:44 52 °F 49.1 °F 29.7 in Calm     90% 0 in 0 W/m2
22:49 52 °F 49.1 °F 29.7 in Calm     90% 0 in 0 W/m2
22:55 52 °F 49.1 °F 29.7 in Calm     90% 0 in 0 W/m2
23:00 52 °F 48.9 °F 29.7 in South 0.9 mph 1 mph 89% 0 in 0 W/m2
23:05 52.2 °F 49.1 °F 29.7 in WSW 0.9 mph 2 mph 89% 0 in 0 W/m2
23:10 52.5 °F 48.7 °F 29.7 in West 0.9 mph 2 mph 87% 0 in 0 W/m2
23:15 53.1 °F 48.7 °F 29.7 in NNE 0.9 mph 3 mph 85% 0 in 0 W/m2
23:20 53.6 °F 48.6 °F 29.7 in WNW 0.9 mph 2 mph 83% 0 in 0 W/m2
23:25 54 °F 48.6 °F 29.7 in WSW 2.9 mph 5 mph 82% 0 in 0 W/m2
23:30 54.3 °F 48.2 °F 29.7 in WSW 2.9 mph 3 mph 80% 0 in 0 W/m2
23:35 54.7 °F 48.4 °F 29.7 in Calm   1 mph 79% 0 in 0 W/m2
23:40 54.7 °F 48.4 °F 29.7 in NW 0.9 mph 3 mph 79% 0 in 0 W/m2
23:45 54.7 °F 48.4 °F 29.7 in NNW 0.9 mph 1 mph 79% 0 in 0 W/m2
23:51 54.5 °F 48.2 °F 29.7 in NNW 2 mph 4 mph 79% 0 in 0 W/m2
23:56 54.7 °F 48 °F 29.7 in NNW 2 mph 2 mph 78% 0 in 0 W/m2
Juneau County Weather
Compliments of Weather Underground - 4 mb